createdAt,value
2018-04-26T00:01:17.352Z,65.50
2018-04-26T00:03:45.595Z,65.50
2018-04-26T00:06:14.598Z,65.70
2018-04-26T00:08:42.846Z,65.60
2018-04-26T00:11:11.083Z,65.60
2018-04-26T00:13:39.325Z,65.40
2018-04-26T00:16:07.560Z,64.80
2018-04-26T00:18:35.802Z,64.80
2018-04-26T00:21:04.037Z,65.30
2018-04-26T00:23:33.045Z,65.80
2018-04-26T00:26:01.278Z,65.60
2018-04-26T00:28:29.798Z,65.90
2018-04-26T00:30:58.794Z,66.60
2018-04-26T00:33:27.045Z,66.50
2018-04-26T00:35:55.576Z,67.10
2018-04-26T00:38:23.798Z,67.60
2018-04-26T00:40:52.030Z,67.30
2018-04-26T00:43:20.274Z,67.70
2018-04-26T00:45:49.278Z,69.20
2018-04-26T00:48:17.538Z,69.30
2018-04-26T00:50:46.537Z,70.00
2018-04-26T00:53:15.554Z,70.50
2018-04-26T00:55:43.798Z,70.40
2018-04-26T00:58:12.802Z,71.30
2018-04-26T01:00:41.046Z,71.30
2018-04-26T01:03:09.278Z,71.30
2018-04-26T01:05:37.643Z,71.70
2018-04-26T01:08:05.873Z,71.00
2018-04-26T01:10:34.131Z,69.50
2018-04-26T01:13:02.362Z,68.60
2018-04-26T01:15:30.870Z,68.20
2018-04-26T01:17:59.113Z,67.90
2018-04-26T01:20:27.350Z,68.20
2018-04-26T01:22:55.593Z,67.50
2018-04-26T01:25:23.833Z,66.90
2018-04-26T01:27:52.842Z,67.00
2018-04-26T01:30:21.090Z,67.00
2018-04-26T01:32:50.123Z,67.30
2018-04-26T01:35:18.338Z,67.30
2018-04-26T01:37:49.393Z,67.30
2018-04-26T01:40:18.411Z,68.50
2018-04-26T01:42:47.436Z,67.50
2018-04-26T01:45:15.662Z,67.50
2018-04-26T01:47:44.670Z,66.70
2018-04-26T01:50:12.935Z,66.70
2018-04-26T01:52:41.941Z,67.10
2018-04-26T01:55:10.200Z,67.00
2018-04-26T01:57:38.433Z,67.60
2018-04-26T02:00:06.969Z,67.80
2018-04-26T02:02:35.966Z,68.10
2018-04-26T02:05:04.205Z,68.00
2018-04-26T02:07:32.469Z,68.30
2018-04-26T02:10:00.709Z,68.20
2018-04-26T02:12:28.952Z,68.20
2018-04-26T02:14:57.958Z,67.50
2018-04-26T02:17:26.210Z,67.40
2018-04-26T02:19:54.454Z,67.10
2018-04-26T02:22:22.687Z,67.10
2018-04-26T02:24:51.683Z,66.60
2018-04-26T02:27:19.934Z,66.50
2018-04-26T02:29:48.170Z,66.60
2018-04-26T02:32:16.422Z,66.10
2018-04-26T02:34:44.662Z,66.70
2018-04-26T02:37:12.918Z,67.10
2018-04-26T02:39:41.148Z,66.90
2018-04-26T02:42:09.398Z,65.80
2018-04-26T02:44:38.398Z,66.00
2018-04-26T02:47:06.649Z,65.90
2018-04-26T02:49:34.895Z,64.30
2018-04-26T02:52:03.126Z,63.90
2018-04-26T02:54:31.379Z,65.10
2018-04-26T02:56:59.688Z,64.60
2018-04-26T02:59:27.939Z,65.20
2018-04-26T03:01:56.946Z,64.90
2018-04-26T03:04:25.194Z,64.90
2018-04-26T03:06:53.523Z,65.20
2018-04-26T03:09:22.082Z,64.50
2018-04-26T03:11:51.075Z,63.50
2018-04-26T03:14:19.317Z,63.50
2018-04-26T03:16:47.562Z,64.20
2018-04-26T03:19:16.102Z,64.40
2018-04-26T03:21:45.098Z,64.00
2018-04-26T03:24:14.122Z,64.30
2018-04-26T03:26:42.349Z,64.30
2018-04-26T03:29:11.358Z,65.00
2018-04-26T03:31:40.455Z,65.30
2018-04-26T03:34:09.519Z,64.50
2018-04-26T03:36:37.755Z,64.40
2018-04-26T03:39:05.982Z,64.60
2018-04-26T03:41:35.294Z,64.60
2018-04-26T03:44:04.316Z,64.40
2018-04-26T03:46:32.527Z,64.30
2018-04-26T03:49:00.770Z,64.50
2018-04-26T03:51:29.019Z,65.60
2018-04-26T03:53:58.023Z,64.60
2018-04-26T03:56:27.194Z,64.50
2018-04-26T03:58:56.302Z,63.50
2018-04-26T04:01:42.943Z,62.60
2018-04-26T04:04:29.210Z,62.60
2018-04-26T04:06:58.216Z,61.50
2018-04-26T04:09:26.464Z,61.50
2018-04-26T04:11:55.496Z,60.40
2018-04-26T04:14:23.726Z,60.30
2018-04-26T04:16:52.330Z,60.30
2018-04-26T04:19:21.326Z,59.50
2018-04-26T04:21:49.572Z,59.40
2018-04-26T04:24:17.817Z,58.70
2018-04-26T04:26:46.354Z,58.50
2018-04-26T04:29:15.363Z,58.60
2018-04-26T04:31:43.602Z,58.50
2018-04-26T04:34:11.850Z,56.50
2018-04-26T04:36:40.097Z,55.60
2018-04-26T04:39:08.341Z,54.90
2018-04-26T04:41:37.348Z,55.70
2018-04-26T04:44:05.599Z,55.60
2018-04-26T04:46:34.613Z,54.20
2018-04-26T04:49:02.858Z,54.10
2018-04-26T04:51:31.091Z,53.80
2018-04-26T04:53:59.651Z,52.50
2018-04-26T04:56:28.650Z,51.30
2018-04-26T04:58:56.888Z,51.20
2018-04-26T05:01:25.134Z,51.40
2018-04-26T05:03:53.380Z,51.70
2018-04-26T05:06:21.630Z,52.00
2018-04-26T05:08:50.635Z,52.40
2018-04-26T05:11:18.878Z,52.30
2018-04-26T05:13:47.136Z,52.90
2018-04-26T05:16:15.363Z,53.00
2018-04-26T05:18:44.371Z,53.50
2018-04-26T05:21:12.622Z,53.40
2018-04-26T05:23:41.645Z,53.40
2018-04-26T05:26:09.883Z,53.30
2018-04-26T05:28:39.202Z,53.90
2018-04-26T05:31:07.449Z,53.80
2018-04-26T05:33:35.692Z,54.40
2018-04-26T05:36:04.056Z,54.80
2018-04-26T05:38:32.298Z,56.00
2018-04-26T05:41:01.341Z,57.90
2018-04-26T05:43:29.582Z,57.80
2018-04-26T05:45:58.758Z,58.90
2018-04-26T05:48:27.770Z,60.50
2018-04-26T05:50:56.064Z,60.50
2018-04-26T05:53:24.638Z,61.50
2018-04-26T05:55:53.612Z,61.60
2018-04-26T05:58:21.790Z,62.30
2018-04-26T06:00:50.038Z,61.10
2018-04-26T06:03:19.046Z,60.20
2018-04-26T06:05:48.361Z,61.30
2018-04-26T06:08:16.602Z,61.20
2018-04-26T06:10:44.833Z,60.40
2018-04-26T06:13:13.077Z,60.20
2018-04-26T06:15:42.094Z,60.70
2018-04-26T06:18:10.345Z,60.60
2018-04-26T06:20:39.341Z,63.60
2018-04-26T06:23:08.358Z,63.70
2018-04-26T06:25:36.600Z,63.60
2018-04-26T06:28:05.602Z,65.30
2018-04-26T06:30:34.623Z,65.40
2018-04-26T06:33:02.858Z,65.30
2018-04-26T06:35:31.865Z,65.60
2018-04-26T06:38:00.870Z,67.00
2018-04-26T06:40:29.549Z,66.90
2018-04-26T06:42:57.786Z,67.30
2018-04-26T06:45:26.022Z,66.30
2018-04-26T06:47:54.323Z,66.00
2018-04-26T06:50:22.510Z,66.40
2018-04-26T06:52:51.542Z,66.10
2018-04-26T06:55:19.787Z,66.20
2018-04-26T06:57:48.059Z,64.50
2018-04-26T07:00:16.290Z,64.20
2018-04-26T07:02:44.539Z,62.40
2018-04-26T07:05:13.554Z,62.20
2018-04-26T07:07:41.790Z,62.20
2018-04-26T07:10:10.022Z,62.30
2018-04-26T07:12:38.274Z,62.20
2018-04-26T07:15:06.511Z,61.90
2018-04-26T07:17:34.754Z,61.90
2018-04-26T07:20:03.018Z,61.40
2018-04-26T07:22:31.250Z,63.30
2018-04-26T07:25:00.254Z,63.80
2018-04-26T07:27:29.290Z,62.70
2018-04-26T07:29:57.533Z,62.70
2018-04-26T07:32:25.781Z,62.90
2018-04-26T07:34:54.030Z,62.60
2018-04-26T07:37:22.246Z,62.50
2018-04-26T07:39:50.498Z,62.00
2018-04-26T07:42:18.774Z,61.60
2018-04-26T07:44:47.027Z,61.80
2018-04-26T07:47:15.304Z,62.50
2018-04-26T07:49:43.528Z,63.20
2018-04-26T07:52:12.544Z,61.70
2018-04-26T07:54:40.774Z,61.60
2018-04-26T07:57:09.783Z,62.40
2018-04-26T07:59:38.809Z,62.20
2018-04-26T08:02:07.289Z,62.20
2018-04-26T08:04:35.520Z,61.40
2018-04-26T08:07:04.749Z,61.20
2018-04-26T08:09:32.986Z,60.40
2018-04-26T08:12:01.227Z,61.10
2018-04-26T08:14:29.768Z,61.70
2018-04-26T08:16:58.766Z,61.30
2018-04-26T08:19:27.007Z,61.20
2018-04-26T08:21:55.254Z,61.50
2018-04-26T08:24:24.437Z,61.90
2018-04-26T08:26:52.687Z,61.90
2018-04-26T08:29:20.988Z,61.00
2018-04-26T08:31:49.214Z,60.60
2018-04-26T08:34:17.488Z,60.80
2018-04-26T08:36:45.799Z,60.80
2018-04-26T08:39:13.958Z,61.30
2018-04-26T08:41:43.002Z,61.10
2018-04-26T08:44:11.564Z,61.10
2018-04-26T08:46:39.798Z,60.40
2018-04-26T08:49:08.902Z,60.50
2018-04-26T08:51:37.913Z,61.40
2018-04-26T08:54:06.159Z,61.40
2018-04-26T08:56:34.412Z,61.40
2018-04-26T08:59:02.648Z,60.70
2018-04-26T09:01:30.886Z,59.70
2018-04-26T09:03:59.889Z,59.10
2018-04-26T09:06:28.906Z,59.20
2018-04-26T09:08:57.153Z,59.10
2018-04-26T09:11:26.157Z,58.20
2018-04-26T09:13:55.172Z,58.10
2018-04-26T09:16:23.411Z,58.10
2018-04-26T09:18:52.417Z,57.00
2018-04-26T09:21:21.435Z,57.30
2018-04-26T09:23:49.670Z,57.30
2018-04-26T09:26:18.069Z,58.20
2018-04-26T09:28:47.073Z,57.80
2018-04-26T09:31:15.300Z,57.70
2018-04-26T09:33:43.545Z,56.00
2018-04-26T09:36:11.786Z,56.50
2018-04-26T09:38:40.860Z,57.10
2018-04-26T09:41:09.030Z,57.00
2018-04-26T09:43:37.271Z,56.60
2018-04-26T09:46:05.511Z,56.90
2018-04-26T09:48:33.823Z,57.30
2018-04-26T09:51:02.039Z,57.90
2018-04-26T09:53:30.313Z,57.20
2018-04-26T09:55:58.610Z,57.50
2018-04-26T09:58:27.692Z,57.50
2018-04-26T10:00:55.859Z,57.50
2018-04-26T10:03:29.074Z,58.30
2018-04-26T10:05:58.082Z,59.00
2018-04-26T10:08:26.322Z,58.70
2018-04-26T10:10:55.330Z,58.70
2018-04-26T10:13:24.334Z,59.40
2018-04-26T10:15:52.594Z,59.40
2018-04-26T10:18:21.594Z,59.00
2018-04-26T10:20:50.601Z,59.30
2018-04-26T10:23:18.861Z,59.30
2018-04-26T10:25:47.857Z,59.30
2018-04-26T10:28:16.114Z,59.30
2018-04-26T10:30:44.346Z,59.80
2018-04-26T10:33:12.606Z,60.40
2018-04-26T10:35:40.833Z,59.90
2018-04-26T10:38:09.441Z,59.70
2018-04-26T10:40:38.442Z,59.50
2018-04-26T10:43:06.682Z,59.50
2018-04-26T10:45:34.925Z,59.90
2018-04-26T10:48:03.173Z,60.00
2018-04-26T10:50:31.406Z,59.90
2018-04-26T10:53:00.139Z,59.60
2018-04-26T10:55:28.315Z,59.30
2018-04-26T10:57:56.549Z,59.60
2018-04-26T11:00:24.792Z,59.80
2018-04-26T11:02:53.030Z,59.90
2018-04-26T11:05:21.282Z,59.90
2018-04-26T11:07:50.273Z,59.80
2018-04-26T11:10:19.295Z,60.20
2018-04-26T11:12:47.585Z,60.10
2018-04-26T11:15:15.814Z,59.40
2018-04-26T11:17:44.058Z,58.40
2018-04-26T11:20:12.322Z,58.40
2018-04-26T11:22:40.564Z,58.90
2018-04-26T11:25:09.577Z,56.10
2018-04-26T11:27:37.822Z,56.10
2018-04-26T11:30:06.840Z,56.60
2018-04-26T11:32:35.071Z,55.90
2018-04-26T11:35:03.368Z,56.80
2018-04-26T11:37:32.385Z,56.10
2018-04-26T11:40:00.654Z,56.00
2018-04-26T11:42:28.878Z,56.20
2018-04-26T11:44:57.129Z,56.30
2018-04-26T11:47:25.362Z,56.40
2018-04-26T11:49:54.567Z,55.90
2018-04-26T11:52:23.681Z,56.10
2018-04-26T11:54:52.241Z,56.10
2018-04-26T11:57:21.341Z,56.50
2018-04-26T11:59:50.353Z,57.40
2018-04-26T12:02:18.675Z,57.40
2018-04-26T12:04:47.613Z,57.30
2018-04-26T12:07:15.859Z,57.30
2018-04-26T12:09:44.093Z,57.90
2018-04-26T12:12:12.339Z,57.90
2018-04-26T12:14:40.581Z,58.20
2018-04-26T12:17:08.813Z,58.40
2018-04-26T12:19:37.369Z,58.80
2018-04-26T12:22:05.601Z,59.00
2018-04-26T12:24:33.841Z,58.30
2018-04-26T12:27:02.194Z,58.00
2018-04-26T12:29:31.188Z,57.60
2018-04-26T12:31:59.437Z,57.60
2018-04-26T12:34:27.674Z,57.00
2018-04-26T12:36:55.944Z,56.70
2018-04-26T12:39:24.177Z,56.50
2018-04-26T12:41:53.174Z,54.30
2018-04-26T12:44:22.191Z,54.80
2018-04-26T12:46:50.418Z,54.80
2018-04-26T12:49:18.674Z,55.10
2018-04-26T12:51:46.911Z,54.30
2018-04-26T12:54:15.150Z,53.50
2018-04-26T12:56:43.394Z,54.00
2018-04-26T12:59:11.640Z,53.30
2018-04-26T13:01:40.002Z,52.80
2018-04-26T13:04:08.250Z,51.90
2018-04-26T13:06:37.258Z,51.80
2018-04-26T13:09:06.367Z,51.90
2018-04-26T13:11:35.385Z,51.90
2018-04-26T13:14:03.637Z,51.80
2018-04-26T13:16:32.118Z,52.00
2018-04-26T13:19:00.362Z,52.40
2018-04-26T13:21:28.637Z,51.80
2018-04-26T13:23:56.842Z,51.70
2018-04-26T13:26:25.864Z,50.30
2018-04-26T13:28:54.150Z,50.20
2018-04-26T13:31:22.399Z,50.50
2018-04-26T13:33:50.687Z,50.80
2018-04-26T13:36:19.010Z,51.20
2018-04-26T13:38:47.947Z,50.10
2018-04-26T13:41:16.181Z,50.00
2018-04-26T13:43:44.433Z,50.30
2018-04-26T13:46:12.699Z,50.00
2018-04-26T13:48:40.930Z,50.10
2018-04-26T13:51:09.952Z,50.50
2018-04-26T13:53:38.189Z,50.40
2018-04-26T13:56:07.196Z,49.60
2018-04-26T13:58:35.425Z,49.60
2018-04-26T14:01:04.155Z,48.30
2018-04-26T14:03:33.162Z,48.00
2018-04-26T14:06:02.152Z,47.90
2018-04-26T14:08:30.385Z,47.80
2018-04-26T14:10:58.637Z,48.00
2018-04-26T14:13:26.869Z,47.90
2018-04-26T14:15:55.122Z,48.20
2018-04-26T14:18:23.358Z,48.30
2018-04-26T14:20:51.592Z,48.80
2018-04-26T14:23:20.747Z,48.90
2018-04-26T14:25:49.926Z,50.20
2018-04-26T14:28:18.158Z,49.60
2018-04-26T14:30:47.157Z,50.20
2018-04-26T14:33:16.191Z,50.60
2018-04-26T14:35:44.447Z,50.60
2018-04-26T14:38:12.687Z,51.00
2018-04-26T14:40:41.691Z,50.40
2018-04-26T14:43:10.769Z,50.50
2018-04-26T14:45:38.961Z,50.40
2018-04-26T14:48:07.961Z,50.10
2018-04-26T14:50:36.447Z,50.10
2018-04-26T14:53:04.694Z,49.10
2018-04-26T14:55:33.689Z,49.40
2018-04-26T14:58:02.795Z,50.10
2018-04-26T15:00:31.803Z,49.60
2018-04-26T15:03:00.085Z,49.60
2018-04-26T15:05:28.387Z,49.30
2018-04-26T15:07:56.560Z,49.50
2018-04-26T15:10:24.793Z,49.10
2018-04-26T15:12:53.853Z,50.10
2018-04-26T15:15:22.112Z,50.10
2018-04-26T15:17:50.346Z,49.90
2018-04-26T15:20:18.594Z,49.60
2018-04-26T15:22:47.631Z,48.70
2018-04-26T15:25:15.871Z,48.70
2018-04-26T15:27:45.193Z,49.10
2018-04-26T15:30:13.425Z,49.00
2018-04-26T15:32:41.670Z,49.70
2018-04-26T15:35:09.933Z,49.20
2018-04-26T15:37:38.162Z,49.00
2018-04-26T15:40:06.398Z,49.50
2018-04-26T15:42:34.647Z,49.70
2018-04-26T15:45:02.907Z,49.50
2018-04-26T15:47:31.910Z,49.60
2018-04-26T15:50:00.195Z,49.50
2018-04-26T15:52:51.801Z,50.10
2018-04-26T15:59:03.974Z,49.90
2018-04-26T16:05:34.343Z,50.40
2018-04-26T16:08:25.912Z,50.70
2018-04-26T16:11:17.458Z,50.40
2018-04-26T16:14:05.987Z,51.10
2018-04-26T16:16:49.499Z,51.50
2018-04-26T16:19:41.869Z,51.50
2018-04-26T16:25:53.737Z,51.40
2018-04-26T16:28:45.511Z,51.60
2018-04-26T16:31:37.357Z,52.10
2018-04-26T16:34:23.309Z,52.10
2018-04-26T16:37:09.953Z,52.10
2018-04-26T16:39:38.193Z,52.10
2018-04-26T16:42:07.226Z,51.50
2018-04-26T16:44:35.478Z,51.50
2018-04-26T16:47:03.706Z,51.40
2018-04-26T16:49:31.986Z,51.40
2018-04-26T16:52:00.218Z,51.50
2018-04-26T16:54:28.462Z,51.40
2018-04-26T16:56:57.471Z,50.90
2018-04-26T16:59:25.713Z,50.90
2018-04-26T17:01:54.717Z,51.70
2018-04-26T17:04:23.884Z,51.60
2018-04-26T17:06:51.973Z,51.60
2018-04-26T17:09:20.226Z,51.50
2018-04-26T17:11:48.464Z,51.90
2018-04-26T17:14:16.713Z,52.10
2018-04-26T17:16:45.734Z,52.60
2018-04-26T17:19:13.966Z,52.50
2018-04-26T17:21:42.210Z,52.70
2018-04-26T17:24:10.459Z,52.40
2018-04-26T17:26:38.714Z,52.50
2018-04-26T17:29:07.767Z,53.40
2018-04-26T17:31:35.994Z,53.40
2018-04-26T17:34:04.245Z,53.50
2018-04-26T17:36:33.254Z,53.50
2018-04-26T17:39:01.530Z,53.50
2018-04-26T17:41:30.828Z,53.80
2018-04-26T17:43:59.829Z,53.80
2018-04-26T17:46:28.089Z,53.70
2018-04-26T17:48:57.102Z,54.30
2018-04-26T17:51:25.344Z,53.90
2018-04-26T17:53:54.353Z,54.10
2018-04-26T17:56:23.351Z,54.20
2018-04-26T17:58:52.370Z,54.60
2018-04-26T18:01:20.921Z,54.50
2018-04-26T18:03:49.990Z,55.40
2018-04-26T18:06:18.163Z,55.40
2018-04-26T18:08:46.414Z,55.50
2018-04-26T18:11:14.666Z,55.90
2018-04-26T18:13:42.889Z,56.10
2018-04-26T18:16:12.659Z,56.50
2018-04-26T18:18:40.911Z,56.40
2018-04-26T18:21:09.148Z,56.60
2018-04-26T18:23:38.916Z,57.20
2018-04-26T18:26:07.154Z,57.10
2018-04-26T18:28:36.191Z,57.30
2018-04-26T18:31:04.512Z,57.20
2018-04-26T18:33:32.742Z,57.60
2018-04-26T18:36:01.109Z,58.80
2018-04-26T18:38:30.020Z,57.30
2018-04-26T18:40:58.388Z,57.20
2018-04-26T18:43:26.679Z,57.40
2018-04-26T18:45:54.917Z,57.40
2018-04-26T18:48:23.183Z,57.70
2018-04-26T18:50:52.203Z,58.10
2018-04-26T18:53:20.458Z,58.00
2018-04-26T18:55:49.468Z,58.20
2018-04-26T18:58:17.697Z,58.10
2018-04-26T19:00:45.946Z,58.10
2018-04-26T19:03:14.285Z,58.40
2018-04-26T19:05:42.681Z,58.20
2018-04-26T19:08:10.901Z,58.30
2018-04-26T19:10:39.136Z,58.10
2018-04-26T19:13:07.386Z,58.20
2018-04-26T19:15:36.399Z,58.40
2018-04-26T19:18:04.643Z,58.30
2018-04-26T19:20:33.646Z,59.10
2018-04-26T19:23:02.686Z,59.40
2018-04-26T19:25:30.918Z,59.30
2018-04-26T19:27:59.934Z,59.20
2018-04-26T19:30:28.178Z,59.10
2018-04-26T19:32:57.193Z,58.70
2018-04-26T19:35:25.447Z,58.70
2018-04-26T19:37:54.453Z,58.10
2018-04-26T19:40:22.708Z,58.00
2018-04-26T19:42:51.715Z,58.20
2018-04-26T19:45:20.812Z,58.80
2018-04-26T19:47:49.066Z,58.70
2018-04-26T19:50:17.309Z,59.00
2018-04-26T19:52:45.626Z,59.30
2018-04-26T19:55:14.725Z,59.80
2018-04-26T19:57:43.748Z,59.70
2018-04-26T20:00:13.026Z,59.60
2018-04-26T20:02:42.023Z,59.70
2018-04-26T20:05:10.270Z,59.70
2018-04-26T20:07:40.038Z,59.70
2018-04-26T20:10:08.266Z,59.60
2018-04-26T20:12:37.366Z,59.60
2018-04-26T20:15:06.395Z,59.80
2018-04-26T20:17:34.649Z,59.70
2018-04-26T20:20:02.882Z,59.60
2018-04-26T20:22:31.126Z,59.50
2018-04-26T20:24:59.362Z,59.40
2018-04-26T20:27:28.396Z,59.30
2018-04-26T20:29:56.640Z,59.20
2018-04-26T20:32:25.652Z,59.20
2018-04-26T20:34:53.898Z,59.10
2018-04-26T20:37:22.901Z,58.90
2018-04-26T20:39:51.414Z,58.70
2018-04-26T20:42:19.658Z,58.90
2018-04-26T20:44:48.679Z,59.00
2018-04-26T20:47:17.017Z,59.00
2018-04-26T20:49:46.043Z,58.90
2018-04-26T20:52:14.290Z,58.90
2018-04-26T20:54:43.289Z,59.30
2018-04-26T20:57:11.878Z,59.20
2018-04-26T20:59:40.133Z,59.50
2018-04-26T21:02:09.147Z,59.10
2018-04-26T21:04:37.391Z,59.10
2018-04-26T21:07:05.638Z,59.30
2018-04-26T21:09:33.889Z,59.30
2018-04-26T21:12:02.119Z,59.40
2018-04-26T21:14:30.357Z,59.60
2018-04-26T21:16:58.898Z,59.70
2018-04-26T21:19:27.992Z,60.10
2018-04-26T21:24:31.556Z,60.10
2018-04-26T21:26:59.815Z,60.00
2018-04-26T21:29:28.166Z,60.60
2018-04-26T21:31:56.398Z,60.80
2018-04-26T21:34:24.649Z,61.00
2018-04-26T21:36:52.913Z,61.30
2018-04-26T21:39:21.474Z,61.70
2018-04-26T21:41:50.470Z,61.90
2018-04-26T21:44:18.709Z,61.80
2018-04-26T21:46:46.962Z,61.90
2018-04-26T21:49:14.557Z,61.90
2018-04-26T21:51:49.031Z,62.60
2018-04-26T21:54:22.938Z,62.50
2018-04-26T21:56:56.685Z,62.70
2018-04-26T21:59:30.721Z,62.90
2018-04-26T22:02:05.338Z,63.10
2018-04-26T22:04:33.833Z,63.00
2018-04-26T22:07:02.081Z,63.00
2018-04-26T22:09:31.085Z,63.30
2018-04-26T22:12:00.306Z,63.20
2018-04-26T22:14:28.553Z,63.20
2018-04-26T22:16:56.793Z,63.40
2018-04-26T22:19:25.050Z,63.30
2018-04-26T22:21:53.288Z,63.30
2018-04-26T22:24:22.295Z,63.40
2018-04-26T22:26:50.545Z,63.40
2018-04-26T22:29:18.773Z,63.80
2018-04-26T22:31:47.013Z,64.10
2018-04-26T22:34:15.263Z,64.20
2018-04-26T22:36:43.570Z,65.20
2018-04-26T22:39:11.813Z,64.40
2018-04-26T22:41:40.051Z,64.70
2018-04-26T22:44:08.294Z,64.90
2018-04-26T22:46:36.555Z,65.10
2018-04-26T22:49:06.482Z,65.10
2018-04-26T22:51:35.481Z,65.40
2018-04-26T22:54:03.714Z,65.30
2018-04-26T22:56:32.736Z,65.40
2018-04-26T22:59:01.738Z,65.70
2018-04-26T23:01:30.884Z,65.70
2018-04-26T23:03:59.129Z,65.70
2018-04-26T23:06:27.386Z,65.50
2018-04-26T23:08:56.383Z,65.90
2018-04-26T23:11:24.636Z,65.90
2018-04-26T23:13:52.870Z,65.70
2018-04-26T23:16:21.115Z,65.60
2018-04-26T23:18:49.346Z,65.60
2018-04-26T23:21:17.589Z,65.70
2018-04-26T23:23:46.034Z,65.70
2018-04-26T23:26:15.042Z,65.80
2018-04-26T23:28:43.274Z,65.70
2018-04-26T23:31:11.531Z,66.00
2018-04-26T23:33:39.786Z,66.00
2018-04-26T23:36:08.263Z,66.10
2018-04-26T23:38:36.489Z,66.20
2018-04-26T23:41:04.726Z,65.90
2018-04-26T23:43:32.969Z,66.90
2018-04-26T23:46:01.203Z,65.90
2018-04-26T23:48:29.442Z,65.90
2018-04-26T23:50:57.990Z,66.20
2018-04-26T23:53:26.994Z,67.20
2018-04-26T23:55:55.354Z,67.10
2018-04-26T23:58:23.838Z,67.10
